메인 페이지
METAR-TAF:

METAR-TAF

공항 :

매캐런 국제공항

라스베이거스, 네바다, 미국

위도: 36-04-44N, 경도: 115-09-19W, 고도: 663m

현재 날씨관측

예보는 27분 전, 20:56시(UTC)에 발표되었습니다.
서남서11kt, 순간 최대 풍속 21kt
온도 39°C
습도 8%
기압 1012 hPa
시정: 16.1km
고도 22000ft 상공 구름 많음

METAR: KLAS 132056Z 24011G21KT 10SM BKN220 39/M01 A2988 RMK AO2 SLP087 T03891006 58016 $

시각: 14:23 (21:23 UTC)

예보

예보는 3 시간 51분 전, 17:32시(UTC)에 발표되었습니다.
예보 대상 시간: 13일 18시부터 14일 24시까지 (UTC)
남남동9kt
시정: 10km
맑음
13일 1900시부터 (UTC)
12kt, 순간 최대 풍속 20kt
시정: 10km
고도 20000ft 상공 구름 보통
14일 0300시부터 (UTC)
남남서8kt
시정: 10km
고도 20000ft 상공 구름 보통
14일 1300시부터 (UTC)
여러 방향의 바람 6kt
시정: 10km
고도 14000ft 상공 구름 조금
14일 1600시부터 (UTC)
북동7kt
시정: 10km
맑음
14일 2000시부터 (UTC)
남남동8kt
시정: 10km
맑음

TAF: KLAS 131732Z 1318/1424 15009KT P6SM SKC FM131900 19012G20KT P6SM SCT200 FM140300 20008KT P6SM SCT200 FM141300 VRB06KT P6SM FEW140 FM141600 05007KT P6SM SKC FM142000 15008KT P6SM SKC

4,000개 이상의 공항 관측 자료 및 예보 (METAR 및 TAF 보고).

지도상에서 검색 가능한 기상관측소가 노란 점과 빨간 점으로 표시되어 있습니다.

기상관측소 명을 보려면 표시 위로 마우스를 이동하세요.

날씨 관측과 예보를 보려면 클릭하세요.

지도 변경 : 확대하려면 엑스 표시가 있는 녹색 버튼, 축소하려면 빼기 표시가 있는 녹색 버튼, 다음 페이지의 지도를 보려면 녹색 화살표를 클릭하세요.


METAR-TAF: